Time;durP1;ratioP1;P1;durP2;ratioP2;P2;SDS_P1;SDS_P2;PMS_P1;PMS_P2;Temp;Humidity;BMP_temperature;BMP_pressure;BME280_temperature;BME280_humidity;BME280_pressure;Samples;Min_cycle;Max_cycle;Signal;HPM_P1;HPM_P2
2021/06/30 00:00:05;;;;;;;15.40;10.75;;;;;;;24.89;62.32;94900.47;5080217;28;20081;-81
2021/06/30 00:02:31;;;;;;;15.05;11.50;;;;;;;24.07;62.47;94778.91;5087911;28;20063;-81
2021/06/30 00:04:56;;;;;;;14.93;11.38;;;;;;;24.65;62.39;94864.34;5070401;28;20035;-81
2021/06/30 00:07:22;;;;;;;15.20;11.38;;;;;;;24.77;62.90;94917.53;5075658;28;20050;-81
2021/06/30 00:09:47;;;;;;;16.65;12.02;;;;;;;24.26;62.59;94822.50;5066252;28;20050;-81
2021/06/30 00:12:13;;;;;;;16.55;11.40;;;;;;;24.31;62.68;94841.53;5086642;28;20043;-81
2021/06/30 00:14:38;;;;;;;13.45;11.48;;;;;;;24.18;62.59;94838.75;5098516;28;20024;-79
2021/06/30 00:17:04;;;;;;;15.63;11.70;;;;;;;24.12;62.45;94832.63;5096138;28;20028;-81
2021/06/30 00:19:30;;;;;;;13.20;11.27;;;;;;;23.74;62.75;94794.28;5104520;28;20042;-81
2021/06/30 00:21:55;;;;;;;15.02;11.30;;;;;;;24.55;63.28;94898.78;5086300;28;20037;-81
2021/06/30 00:24:21;;;;;;;16.33;11.48;;;;;;;24.56;62.91;94900.25;5085792;28;20039;-81
2021/06/30 00:26:46;;;;;;;14.45;11.20;;;;;;;24.57;63.66;94912.63;5071152;28;20044;-81
2021/06/30 00:29:11;;;;;;;16.17;11.80;;;;;;;24.46;63.26;94896.44;5083192;28;20039;-81
2021/06/30 00:31:37;;;;;;;13.25;10.75;;;;;;;24.40;63.74;94898.50;5091967;28;20024;-81
2021/06/30 00:34:03;;;;;;;13.52;11.65;;;;;;;24.50;63.45;94911.25;5090186;28;20028;-80
2021/06/30 00:36:36;;;;;;;17.95;11.98;;;;;;;24.25;62.80;94887.28;5073495;28;20193;-80
2021/06/30 00:39:05;;;;;;;14.63;11.05;;;;;;;23.60;62.92;94779.06;5054493;28;20028;-80
2021/06/30 00:41:32;;;;;;;18.33;11.43;;;;;;;24.35;62.81;94889.13;5067970;28;20074;-81
2021/06/30 00:43:57;;;;;;;14.35;11.15;;;;;;;24.36;63.32;94909.72;5081847;28;20430;-81
2021/06/30 00:46:24;;;;;;;13.02;11.43;;;;;;;24.32;63.68;94903.06;5083564;28;20020;-80
2021/06/30 00:48:50;;;;;;;17.85;11.70;;;;;;;24.45;63.71;94916.78;5070723;28;20461;-81
2021/06/30 00:51:15;;;;;;;13.35;10.68;;;;;;;24.46;63.64;94926.44;5069546;28;20024;-81
2021/06/30 00:53:40;;;;;;;15.90;11.63;;;;;;;24.36;63.63;94919.88;5070181;28;20020;-81
2021/06/30 00:56:06;;;;;;;15.43;11.70;;;;;;;24.45;63.67;94935.88;5083612;28;20040;-81
2021/06/30 00:58:44;;;;;;;14.90;11.55;;;;;;;24.33;63.82;94926.38;5072965;28;20379;-81
2021/06/30 01:01:10;;;;;;;14.65;11.70;;;;;;;24.32;64.13;94930.34;5070898;28;20044;-80
2021/06/30 01:03:35;;;;;;;12.93;10.85;;;;;;;23.83;63.75;94856.63;5071693;28;20036;-79
2021/06/30 01:06:01;;;;;;;15.40;11.48;;;;;;;24.30;64.05;94929.38;5057129;28;20476;-80
2021/06/30 01:08:27;;;;;;;17.02;11.63;;;;;;;23.81;63.91;94870.03;5068730;28;20068;-80
2021/06/30 01:10:53;;;;;;;17.60;12.27;;;;;;;24.28;63.82;94929.91;5085261;28;20027;-80
2021/06/30 01:13:18;;;;;;;16.90;11.30;;;;;;;24.27;63.83;94922.97;5086654;28;20399;-80
2021/06/30 01:15:56;;;;;;;15.75;11.88;;;;;;;24.27;63.91;94922.97;5084316;28;20035;-80
2021/06/30 01:18:22;;;;;;;16.27;11.68;;;;;;;24.27;64.46;94920.22;5086936;28;20020;-80
2021/06/30 01:20:49;;;;;;;14.75;11.07;;;;;;;24.10;64.10;94897.91;5067483;28;20037;-80
2021/06/30 01:23:14;;;;;;;16.35;12.15;;;;;;;24.21;64.02;94919.56;5073510;28;20148;-80
2021/06/30 01:25:40;;;;;;;15.43;11.40;;;;;;;24.05;64.50;94896.00;5068600;28;20036;-80
2021/06/30 01:28:05;;;;;;;12.98;11.25;;;;;;;23.80;64.66;94858.38;5083637;28;20398;-80
2021/06/30 01:30:31;;;;;;;16.65;11.13;;;;;;;24.15;64.18;94910.00;5079759;28;20521;-81
2021/06/30 01:32:56;;;;;;;16.30;11.82;;;;;;;23.67;64.34;94843.94;5066022;28;20025;-81
2021/06/30 01:35:22;;;;;;;14.90;11.75;;;;;;;24.07;64.67;94909.84;5048115;28;20088;-80
2021/06/30 01:37:48;;;;;;;15.45;11.05;;;;;;;24.05;64.52;94912.34;5070114;28;20036;-81
2021/06/30 01:40:14;;;;;;;19.10;11.43;;;;;;;24.07;64.42;94915.28;5068565;28;20495;-79
2021/06/30 01:42:42;;;;;;;16.23;11.48;;;;;;;23.98;64.38;94907.47;5066254;28;20111;-80
2021/06/30 01:45:08;;;;;;;17.38;11.20;;;;;;;24.01;64.83;94917.34;5054766;28;20025;-80
2021/06/30 01:47:34;;;;;;;16.23;11.63;;;;;;;23.67;64.70;94869.19;5072569;28;20048;-81
2021/06/30 01:49:59;;;;;;;16.30;11.05;;;;;;;23.67;64.84;94884.81;5071771;28;20027;-80
2021/06/30 01:52:29;;;;;;;15.55;11.80;;;;;;;23.91;64.91;94935.31;5056261;28;20024;-81
2021/06/30 01:54:54;;;;;;;17.17;12.27;;;;;;;23.90;64.74;94939.31;5084131;28;20472;-80
2021/06/30 01:57:20;;;;;;;17.05;11.55;;;;;;;23.93;64.86;94932.84;5075859;28;20048;-80
2021/06/30 01:59:45;;;;;;;15.82;11.80;;;;;;;23.37;65.08;94853.44;5083538;28;20035;-80
2021/06/30 02:02:11;;;;;;;17.95;11.90;;;;;;;23.87;64.89;94934.91;5070848;28;20021;-79
2021/06/30 02:04:36;;;;;;;15.75;11.45;;;;;;;23.72;65.38;94916.72;5063687;28;20463;-80
2021/06/30 02:07:02;;;;;;;14.98;11.10;;;;;;;23.75;65.16;94910.25;5082330;28;20029;-79
2021/06/30 02:09:27;;;;;;;15.65;11.30;;;;;;;23.26;65.29;94862.47;5065388;28;20029;-79
2021/06/30 02:11:53;;;;;;;16.33;11.68;;;;;;;23.82;65.19;94936.94;5053858;28;20095;-80
2021/06/30 02:14:18;;;;;;;16.52;11.57;;;;;;;23.79;64.91;94932.53;5067828;28;20032;-80
2021/06/30 02:16:44;;;;;;;14.05;11.13;;;;;;;23.77;65.15;94932.31;5063558;28;20060;-80
2021/06/30 02:19:11;;;;;;;16.05;11.68;;;;;;;23.18;65.59;94853.38;5066049;28;20434;-81
2021/06/30 02:21:37;;;;;;;17.45;12.38;;;;;;;23.76;65.46;94933.56;5044924;28;20039;-80
2021/06/30 02:24:03;;;;;;;15.75;12.00;;;;;;;23.64;65.64;94937.66;5065058;28;20025;-80
2021/06/30 02:26:28;;;;;;;15.40;11.82;;;;;;;23.11;65.67;94842.34;5056044;28;20082;-80
2021/06/30 02:28:55;;;;;;;13.65;10.75;;;;;;;23.65;65.69;94928.97;5048770;28;20024;-80
2021/06/30 02:31:20;;;;;;;15.27;11.52;;;;;;;23.10;65.24;94851.75;5065184;28;20039;-80
2021/06/30 02:33:46;;;;;;;14.82;11.07;;;;;;;22.87;65.74;94833.38;5057309;28;20056;-81
2021/06/30 02:36:11;;;;;;;14.65;11.30;;;;;;;23.54;65.77;94941.94;5062005;28;20039;-81
2021/06/30 02:38:37;;;;;;;12.57;10.35;;;;;;;23.37;65.94;94920.31;5052798;28;20033;-80
2021/06/30 02:41:02;;;;;;;13.98;11.60;;;;;;;23.25;65.98;94907.31;5061384;28;20021;-81
2021/06/30 02:43:28;;;;;;;14.07;10.93;;;;;;;23.41;66.42;94942.56;5051667;28;20104;-80
2021/06/30 02:45:53;;;;;;;16.73;11.15;;;;;;;23.48;65.95;94952.16;5056250;28;20522;-80
2021/06/30 02:48:19;;;;;;;14.55;11.45;;;;;;;23.46;65.62;94943.75;5058322;28;20039;-81
2021/06/30 02:50:44;;;;;;;16.27;12.20;;;;;;;23.48;66.01;94946.72;5056608;28;20399;-82
2021/06/30 02:53:10;;;;;;;15.02;11.10;;;;;;;23.52;66.20;94952.63;5053046;28;20401;-79
2021/06/30 02:55:35;;;;;;;16.25;10.98;;;;;;;23.06;66.41;94890.19;5054068;28;20033;-81
2021/06/30 02:58:01;;;;;;;15.45;11.45;;;;;;;23.47;65.71;94945.25;5035627;28;20515;-84
2021/06/30 03:00:27;;;;;;;15.85;12.20;;;;;;;23.34;65.94;94931.50;5060398;28;20048;-94
2021/06/30 03:02:52;;;;;;;15.60;11.82;;;;;;;23.32;65.77;94923.09;5062146;28;20021;-89
2021/06/30 03:05:17;;;;;;;12.77;11.25;;;;;;;23.13;65.83;94895.03;5057123;28;20031;-87
2021/06/30 03:07:43;;;;;;;14.52;11.15;;;;;;;22.66;65.43;94830.38;5034855;28;20030;-83
2021/06/30 03:10:12;;;;;;;14.05;11.80;;;;;;;23.14;65.35;94901.97;5040464;28;20020;-84
2021/06/30 03:12:38;;;;;;;15.10;10.98;;;;;;;23.62;65.39;94951.03;5036660;28;20104;-84
2021/06/30 03:15:05;;;;;;;12.60;10.73;;;;;;;23.79;65.40;94976.16;5056971;28;20101;-85
2021/06/30 03:17:33;;;;;;;16.83;11.25;;;;;;;23.39;64.44;94906.16;5061091;28;20029;-82
2021/06/30 03:19:59;;;;;;;16.20;11.70;;;;;;;23.47;64.61;94896.19;5062032;28;20063;-83
2021/06/30 03:22:24;;;;;;;15.38;12.32;;;;;;;23.89;64.26;94954.19;5048615;28;20021;-85
2021/06/30 03:24:50;;;;;;;13.50;11.30;;;;;;;24.18;64.09;94975.16;5044373;28;20029;-79
2021/06/30 03:27:15;;;;;;;15.10;12.48;;;;;;;24.32;63.72;94968.56;5059821;28;20073;-81
2021/06/30 03:29:41;;;;;;;14.60;11.48;;;;;;;24.20;63.01;94939.94;5061568;28;20032;-82
2021/06/30 03:32:07;;;;;;;17.20;11.60;;;;;;;24.41;63.01;94960.03;5039562;28;20033;-87
2021/06/30 03:34:32;;;;;;;18.48;12.68;;;;;;;24.21;62.95;94925.03;5059596;28;20029;-83
2021/06/30 03:36:58;;;;;;;14.57;11.45;;;;;;;24.55;62.16;94942.47;5069204;28;20040;-92
2021/06/30 03:39:23;;;;;;;17.95;12.60;;;;;;;24.10;62.14;94859.69;5055263;28;20021;-88
2021/06/30 03:41:49;;;;;;;17.58;12.55;;;;;;;24.36;62.19;94895.31;5061837;28;20025;-86
2021/06/30 03:44:14;;;;;;;17.27;12.20;;;;;;;24.35;62.32;94883.69;5036889;28;20013;-89
2021/06/30 03:46:39;;;;;;;18.67;13.18;;;;;;;24.64;62.45;94931.16;5051101;28;20026;-81
2021/06/30 03:49:05;;;;;;;14.57;12.38;;;;;;;24.44;62.16;94904.41;5054192;28;20043;-86
2021/06/30 03:51:30;;;;;;;15.07;11.63;;;;;;;24.10;61.68;94837.88;5047149;28;20032;-83
2021/06/30 03:53:56;;;;;;;15.23;12.25;;;;;;;24.88;62.17;94953.63;5035854;28;20527;-83
2021/06/30 03:56:25;;;;;;;17.48;12.90;;;;;;;24.38;61.81;94901.03;5031921;28;20028;-84
2021/06/30 03:58:54;;;;;;;14.27;11.45;;;;;;;24.87;61.37;94958.34;5044084;28;20025;-84
2021/06/30 04:01:20;;;;;;;15.27;11.73;;;;;;;24.70;62.00;94926.34;5049958;28;20037;-86
2021/06/30 04:03:49;;;;;;;17.80;12.05;;;;;;;24.46;61.65;94874.59;5039399;28;21493;-82
2021/06/30 04:06:15;;;;;;;14.90;11.65;;;;;;;24.67;61.42;94911.00;5042116;28;20174;-81
2021/06/30 04:08:40;;;;;;;15.65;11.77;;;;;;;24.66;60.96;94874.00;5013283;28;20468;-83
2021/06/30 04:11:05;;;;;;;16.75;12.02;;;;;;;24.77;60.92;94876.56;5028738;28;20025;-87
2021/06/30 04:13:31;;;;;;;16.92;12.65;;;;;;;24.82;60.64;94879.94;5031794;28;20032;-86
2021/06/30 04:15:56;;;;;;;16.35;12.45;;;;;;;25.39;60.38;94963.97;5034178;28;20033;-82
2021/06/30 04:18:22;;;;;;;18.33;13.48;;;;;;;25.49;60.44;94952.09;5048505;28;20044;-81
2021/06/30 04:20:47;;;;;;;18.23;13.55;;;;;;;25.31;60.11;94908.44;5045461;28;20033;-84
2021/06/30 04:23:13;;;;;;;20.80;14.00;;;;;;;25.10;59.92;94872.03;5049595;28;20033;-88
2021/06/30 04:25:38;;;;;;;15.98;12.52;;;;;;;25.14;60.12;94877.94;5032230;28;20037;-89
2021/06/30 04:28:04;;;;;;;18.45;12.93;;;;;;;25.47;60.28;94926.53;5046806;28;20032;-81
2021/06/30 04:30:31;;;;;;;16.70;12.93;;;;;;;25.16;59.40;94891.81;5046432;28;20041;-82
2021/06/30 04:32:56;;;;;;;19.90;14.57;;;;;;;24.99;59.66;94864.06;5040383;28;20145;-81
2021/06/30 04:35:22;;;;;;;18.08;13.18;;;;;;;25.55;59.77;94938.34;5037966;28;20484;-81
2021/06/30 04:37:47;;;;;;;19.33;13.82;;;;;;;25.13;60.18;94895.59;5038014;28;20510;-84
2021/06/30 04:40:13;;;;;;;19.20;14.57;;;;;;;25.64;59.83;94957.06;5027172;28;20037;-85
2021/06/30 04:42:38;;;;;;;15.90;13.25;;;;;;;25.62;59.52;94959.56;5044167;28;20537;-86
2021/06/30 04:45:04;;;;;;;16.80;13.75;;;;;;;25.84;60.16;94971.63;5031864;28;20044;-85
2021/06/30 04:47:29;;;;;;;21.10;14.30;;;;;;;25.95;59.34;94973.41;5052971;28;20033;-88
2021/06/30 04:49:55;;;;;;;18.08;13.15;;;;;;;25.73;58.83;94943.00;5056081;28;20021;-79
2021/06/30 04:52:20;;;;;;;19.10;13.25;;;;;;;25.99;59.04;94971.06;5058672;28;20127;-79
2021/06/30 04:54:46;;;;;;;18.42;13.57;;;;;;;26.07;59.34;94950.75;4989815;28;20054;-76
2021/06/30 04:57:11;;;;;;;18.60;13.65;;;;;;;26.18;58.68;94966.94;5018468;28;20067;-77
2021/06/30 04:59:37;;;;;;;17.90;13.15;;;;;;;26.38;58.67;94964.31;5025401;28;21191;-77
2021/06/30 05:02:02;;;;;;;17.55;13.40;;;;;;;26.45;58.38;94965.66;5023303;28;20028;-77
2021/06/30 05:04:28;;;;;;;18.98;14.27;;;;;;;26.52;57.06;94973.25;5022616;28;20025;-77
2021/06/30 05:06:53;;;;;;;20.73;13.93;;;;;;;26.31;56.83;94932.09;5022594;28;20021;-78
2021/06/30 05:09:18;;;;;;;18.63;13.63;;;;;;;26.43;56.84;94924.38;5008771;28;20032;-89
2021/06/30 05:11:44;;;;;;;19.05;13.00;;;;;;;26.38;56.23;94870.47;5010097;28;20045;-92
2021/06/30 05:14:10;;;;;;;16.80;12.75;;;;;;;26.67;56.18;94891.22;5011328;28;20040;-93
2021/06/30 05:16:35;;;;;;;17.70;13.48;;;;;;;27.29;55.54;94961.97;5029068;28;20099;-82
2021/06/30 05:19:00;;;;;;;17.95;12.95;;;;;;;27.21;55.39;94933.75;5029725;28;20030;-88
2021/06/30 05:21:26;;;;;;;18.85;14.50;;;;;;;27.38;55.84;94953.25;5029781;28;20029;-82
2021/06/30 05:23:51;;;;;;;17.90;14.10;;;;;;;27.46;55.15;94943.09;5028723;28;20030;-84
2021/06/30 05:26:17;;;;;;;17.85;13.13;;;;;;;27.32;54.92;94920.50;5012650;28;20412;-87
2021/06/30 05:28:42;;;;;;;15.05;13.20;;;;;;;27.19;55.46;94900.66;5028657;28;20037;-84
2021/06/30 05:31:08;;;;;;;22.58;14.25;;;;;;;27.74;56.08;94969.28;5025105;28;20660;-75
2021/06/30 05:33:33;;;;;;;20.23;14.68;;;;;;;27.78;55.34;94977.91;5020026;28;20033;-74
2021/06/30 05:35:59;;;;;;;26.45;15.38;;;;;;;27.79;55.98;94987.63;5019383;28;20032;-73
2021/06/30 05:38:24;;;;;;;20.13;14.70;;;;;;;27.77;55.30;94984.69;5022763;28;20095;-76
2021/06/30 05:40:50;;;;;;;21.10;14.52;;;;;;;27.33;56.03;94913.00;5024360;28;20029;-74
2021/06/30 05:43:15;;;;;;;18.73;15.15;;;;;;;27.81;55.99;94987.81;5033761;28;20048;-75
2021/06/30 05:45:41;;;;;;;35.75;15.95;;;;;;;27.85;55.42;94982.72;5022996;28;20029;-75
2021/06/30 05:48:06;;;;;;;19.85;14.68;;;;;;;27.92;55.57;94984.03;5024353;28;20034;-73
2021/06/30 05:50:32;;;;;;;21.98;15.60;;;;;;;28.00;54.82;94985.56;5022196;28;20554;-74
2021/06/30 05:52:57;;;;;;;18.77;14.20;;;;;;;27.97;55.34;94986.63;5028550;28;20089;-77
2021/06/30 05:55:23;;;;;;;16.58;12.20;;;;;;;27.57;55.29;94931.84;5017546;28;20030;-81
2021/06/30 05:57:48;;;;;;;18.80;12.02;;;;;;;27.71;54.96;94958.63;5030510;28;20048;-81
2021/06/30 06:00:16;;;;;;;16.45;12.88;;;;;;;27.80;55.06;94983.59;4998259;28;20458;-82
2021/06/30 06:02:41;;;;;;;15.95;11.15;;;;;;;27.79;53.60;94975.91;5031121;28;20108;-80
2021/06/30 06:05:07;;;;;;;16.13;11.45;;;;;;;27.40;52.79;94923.31;5030482;28;20521;-82
2021/06/30 06:07:33;;;;;;;15.30;11.35;;;;;;;27.68;52.18;94972.72;5029215;28;20014;-81
2021/06/30 06:10:01;;;;;;;14.55;11.32;;;;;;;27.73;52.04;94977.31;5030113;28;20404;-80
2021/06/30 06:12:27;;;;;;;17.00;11.20;;;;;;;27.61;51.45;94965.16;5031011;28;20022;-81
2021/06/30 06:14:52;;;;;;;13.82;10.02;;;;;;;27.65;50.75;94977.25;5029100;28;20028;-79
2021/06/30 06:17:18;;;;;;;13.85;9.75;;;;;;;27.55;50.42;94967.31;5026700;28;20026;-81
2021/06/30 06:19:43;;;;;;;13.98;10.50;;;;;;;27.34;50.36;94944.66;5024875;28;20484;-82
2021/06/30 06:22:09;;;;;;;11.93;9.45;;;;;;;27.43;49.72;94966.84;5016779;28;20032;-81
2021/06/30 06:24:34;;;;;;;11.95;9.93;;;;;;;27.42;49.38;94981.09;5029508;28;20025;-81
2021/06/30 06:27:00;;;;;;;11.90;9.68;;;;;;;27.38;48.77;94975.19;5029707;28;20009;-81
2021/06/30 06:29:26;;;;;;;11.55;9.82;;;;;;;27.33;48.85;94979.53;5026677;28;20273;-81
2021/06/30 06:31:52;;;;;;;12.82;9.68;;;;;;;27.09;48.84;94948.28;5029703;28;20041;-81
2021/06/30 06:34:20;;;;;;;11.45;9.57;;;;;;;27.10;49.06;94953.22;5039564;28;20021;-81
2021/06/30 06:36:47;;;;;;;13.45;8.90;;;;;;;27.21;48.74;94966.66;5024333;28;20033;-81
2021/06/30 06:39:12;;;;;;;10.38;8.93;;;;;;;26.66;48.99;94890.47;5026161;28;20085;-82
2021/06/30 06:41:38;;;;;;;13.25;8.75;;;;;;;27.03;49.52;94945.66;5042352;28;20025;-82
2021/06/30 06:44:04;;;;;;;10.82;8.70;;;;;;;26.97;49.21;94936.81;5027223;28;20075;-82
2021/06/30 06:46:29;;;;;;;10.27;8.82;;;;;;;27.00;49.23;94952.19;5030624;28;20029;-82
2021/06/30 06:48:55;;;;;;;10.20;8.93;;;;;;;27.08;49.30;94963.97;5030551;28;20404;-81
2021/06/30 06:51:20;;;;;;;10.80;9.23;;;;;;;27.06;49.13;94960.31;5030672;28;20026;-82
2021/06/30 06:53:46;;;;;;;11.70;8.95;;;;;;;27.03;49.32;94962.09;5027998;28;20037;-82
2021/06/30 06:56:12;;;;;;;10.25;8.40;;;;;;;26.78;48.96;94924.56;5031816;28;20021;-80
2021/06/30 06:58:38;;;;;;;11.43;8.73;;;;;;;26.81;49.15;94924.22;5029851;28;20057;-79
2021/06/30 07:01:04;;;;;;;9.07;7.97;;;;;;;26.98;48.99;94959.47;5029579;28;20508;-82
2021/06/30 07:03:30;;;;;;;9.63;8.60;;;;;;;26.41;48.77;94872.13;5029357;28;20116;-81
2021/06/30 07:05:55;;;;;;;9.68;8.55;;;;;;;26.82;49.43;94936.66;5025447;28;20033;-81
2021/06/30 07:08:21;;;;;;;10.45;8.77;;;;;;;26.33;49.02;94874.06;5051261;28;20025;-82
2021/06/30 07:10:46;;;;;;;10.43;8.32;;;;;;;26.77;48.91;94934.78;5028907;28;20064;-81
2021/06/30 07:13:13;;;;;;;9.70;8.43;;;;;;;26.83;48.58;94931.91;5031049;28;20083;-82
2021/06/30 07:15:41;;;;;;;10.40;8.30;;;;;;;26.39;48.72;94893.84;5039702;28;20029;-82
2021/06/30 07:18:11;;;;;;;10.57;8.48;;;;;;;26.75;48.71;94919.41;5026907;28;20038;-82
2021/06/30 07:20:36;;;;;;;;;;;;;;;26.83;48.87;94943.63;5027745;28;20034;-82
2021/06/30 07:23:01;;;;;;;9.17;7.93;;;;;;;26.51;48.44;94890.31;5026433;28;19916;-82
2021/06/30 07:25:27;;;;;;;9.68;8.43;;;;;;;26.76;48.80;94931.84;5022855;28;21660;-82
2021/06/30 07:27:52;;;;;;;8.52;7.63;;;;;;;26.70;49.06;94917.53;5029254;28;20025;-83
2021/06/30 07:30:18;;;;;;;10.50;7.70;;;;;;;26.81;48.56;94929.69;5027225;28;20039;-81
2021/06/30 07:32:43;;;;;;;8.90;7.28;;;;;;;26.80;48.97;94928.25;5022044;28;20083;-83
2021/06/30 07:35:09;;;;;;;9.98;7.93;;;;;;;26.73;48.53;94916.47;5023319;28;20459;-82
2021/06/30 07:37:35;;;;;;;8.90;7.55;;;;;;;26.23;48.76;94842.88;5022257;28;20480;-83
2021/06/30 07:40:00;;;;;;;9.65;7.68;;;;;;;26.79;49.09;94926.75;5024617;28;20029;-82
2021/06/30 07:42:25;;;;;;;8.48;7.55;;;;;;;26.68;48.76;94903.63;5043757;28;20415;-82
2021/06/30 07:44:51;;;;;;;8.93;7.80;;;;;;;26.73;48.64;94917.22;5031233;28;20393;-84
2021/06/30 07:47:17;;;;;;;9.27;7.32;;;;;;;26.79;48.71;94915.81;5027362;28;20034;-82
2021/06/30 07:49:42;;;;;;;8.90;7.25;;;;;;;26.75;48.25;94905.72;5027936;28;20542;-82
2021/06/30 07:52:07;;;;;;;8.82;7.72;;;;;;;26.66;48.56;94895.22;5021544;28;20034;-82
2021/06/30 07:54:33;;;;;;;9.27;7.75;;;;;;;26.77;48.20;94906.66;5027598;28;20038;-83
2021/06/30 07:56:59;;;;;;;8.50;7.60;;;;;;;26.63;48.48;94885.31;5020813;28;20050;-69
2021/06/30 07:59:25;;;;;;;8.70;7.60;;;;;;;26.45;47.65;94850.63;5025381;28;20091;-80
2021/06/30 08:01:50;;;;;;;8.73;7.82;;;;;;;26.20;46.34;94838.47;5021336;28;20029;-81
2021/06/30 08:04:16;;;;;;;9.85;7.90;;;;;;;25.86;46.34;94788.50;5007703;28;20044;-80
2021/06/30 08:06:41;;;;;;;8.15;7.35;;;;;;;26.25;45.98;94884.19;5027627;28;20025;-75
2021/06/30 08:09:07;;;;;;;8.85;7.43;;;;;;;26.28;45.40;94894.81;5029514;28;20026;-79
2021/06/30 08:11:32;;;;;;;9.50;7.47;;;;;;;25.87;45.67;94833.75;5028570;28;20044;-80
2021/06/30 08:13:58;;;;;;;8.55;7.28;;;;;;;26.23;46.30;94875.75;5031726;28;20029;-79
2021/06/30 08:16:23;;;;;;;8.15;7.30;;;;;;;26.32;46.87;94900.72;5029556;28;20079;-79
2021/06/30 08:18:49;;;;;;;7.88;7.07;;;;;;;26.28;47.64;94894.09;5030743;28;20037;-81
2021/06/30 08:21:16;;;;;;;8.63;7.60;;;;;;;26.23;49.31;94897.66;5029019;28;20045;-80
2021/06/30 08:23:41;;;;;;;8.57;7.68;;;;;;;25.50;51.20;94784.03;5030735;28;20492;-80
2021/06/30 08:26:08;;;;;;;8.98;7.45;;;;;;;26.06;52.64;94864.44;5017192;28;20056;-81
2021/06/30 08:28:35;;;;;;;8.30;7.40;;;;;;;25.98;53.59;94849.94;5029913;28;20036;-80
2021/06/30 08:31:00;;;;;;;9.77;7.80;;;;;;;26.23;54.02;94889.44;5028711;28;20104;-81
2021/06/30 08:33:25;;;;;;;8.25;7.18;;;;;;;26.21;53.89;94878.28;5029881;28;20496;-81
2021/06/30 08:35:51;;;;;;;10.38;8.20;;;;;;;25.70;54.09;94823.69;5030330;28;20044;-81
2021/06/30 08:38:16;;;;;;;8.07;7.30;;;;;;;26.22;53.93;94885.25;5028645;28;20037;-81
2021/06/30 08:40:42;;;;;;;8.75;7.55;;;;;;;26.04;53.93;94875.19;5029110;28;20026;-81
2021/06/30 08:43:07;;;;;;;9.35;7.43;;;;;;;26.21;53.81;94883.75;5028015;28;20025;-79
2021/06/30 08:45:36;;;;;;;9.27;7.30;;;;;;;25.26;53.53;94750.75;5028658;28;20030;-79
2021/06/30 08:48:02;;;;;;;8.52;7.68;;;;;;;26.19;53.72;94885.53;5018394;28;20032;-78
2021/06/30 08:50:27;;;;;;;8.70;7.55;;;;;;;25.73;53.15;94836.31;5027948;28;20033;-79
2021/06/30 08:52:53;;;;;;;7.85;7.05;;;;;;;26.20;53.42;94901.44;5044805;28;20108;-80
2021/06/30 08:55:18;;;;;;;9.27;7.38;;;;;;;26.17;53.27;94894.28;5007687;28;20489;-79
2021/06/30 08:57:45;;;;;;;9.35;7.10;;;;;;;26.03;53.45;94867.50;5027566;28;20041;-81
2021/06/30 09:00:10;;;;;;;9.23;7.22;;;;;;;26.17;53.18;94883.34;5011933;28;20120;-79
2021/06/30 09:02:36;;;;;;;7.60;6.78;;;;;;;26.02;52.91;94866.03;5024898;28;20241;-81
2021/06/30 09:07:39;;;;;;;9.27;7.50;;;;;;;25.79;53.14;94826.00;5023492;28;20034;-81
2021/06/30 09:10:06;;;;;;;8.90;7.20;;;;;;;26.21;52.86;94872.81;5011740;28;20036;-80
2021/06/30 09:12:38;;;;;;;8.20;6.57;;;;;;;25.78;53.12;94813.56;5025910;28;20052;-80
2021/06/30 09:15:15;;;;;;;7.78;6.88;;;;;;;25.79;52.75;94813.75;5042697;28;20045;-80
2021/06/30 09:17:40;;;;;;;7.68;6.95;;;;;;;25.87;52.52;94828.28;5026236;28;20152;-78
2021/06/30 09:20:09;;;;;;;7.25;6.55;;;;;;;26.23;52.68;94875.75;5053907;28;20017;-82
2021/06/30 09:22:45;;;;;;;8.32;6.80;;;;;;;25.59;52.86;94774.66;5048737;28;20037;-80
2021/06/30 09:25:38;;;;;;;7.80;6.85;;;;;;;25.99;53.42;94835.00;5041814;28;20052;-80
2021/06/30 09:28:12;;;;;;;7.78;6.95;;;;;;;26.27;53.12;94837.84;5029481;28;20033;-80
2021/06/30 09:30:59;;;;;;;7.63;6.60;;;;;;;26.30;53.53;94847.75;5030950;28;20029;-80
2021/06/30 09:33:25;;;;;;;8.43;6.90;;;;;;;25.82;53.73;94799.03;5024497;28;20036;-81
2021/06/30 09:36:01;;;;;;;9.27;7.20;;;;;;;25.79;53.90;94794.63;5025273;28;20036;-82
2021/06/30 09:38:33;;;;;;;6.55;5.85;;;;;;;25.76;53.94;94789.47;5025691;28;20112;-82
2021/06/30 09:40:59;;;;;;;7.70;6.10;;;;;;;25.92;54.26;94797.31;5045233;28;20037;-80
2021/06/30 09:43:29;;;;;;;9.07;6.15;;;;;;;25.98;54.12;94803.41;5033141;28;20029;-80
2021/06/30 09:45:55;;;;;;;6.80;6.05;;;;;;;26.37;53.75;94841.63;5032096;28;20672;-79
2021/06/30 09:48:34;;;;;;;7.70;6.45;;;;;;;25.84;52.97;94771.88;5030231;28;20029;-79
2021/06/30 09:51:03;;;;;;;8.02;5.55;;;;;;;26.34;52.75;94834.47;5032370;28;20067;-80
2021/06/30 09:53:38;;;;;;;6.82;5.70;;;;;;;26.35;53.46;94839.41;5026516;28;20511;-80
2021/06/30 09:56:11;;;;;;;8.15;6.22;;;;;;;26.39;54.29;94833.59;5030322;28;20675;-80
2021/06/30 09:58:36;;;;;;;7.05;6.03;;;;;;;25.94;53.91;94761.94;5046198;28;20049;-81
2021/06/30 10:01:20;;;;;;;8.18;5.72;;;;;;;25.95;53.93;94741.53;5031058;28;20060;-81
2021/06/30 10:03:46;;;;;;;8.23;6.40;;;;;;;26.04;54.14;94730.13;5042836;28;20032;-80
2021/06/30 10:06:35;;;;;;;7.50;6.57;;;;;;;26.70;54.02;94814.16;5030937;28;20037;-80
2021/06/30 10:09:02;;;;;;;7.30;6.30;;;;;;;26.74;53.95;94808.34;5030480;28;20025;-76
2021/06/30 10:11:28;;;;;;;7.38;6.40;;;;;;;26.79;53.24;94810.94;5033552;28;20407;-82
2021/06/30 10:13:55;;;;;;;7.90;6.80;;;;;;;26.83;53.33;94798.38;5031526;28;20021;-78
2021/06/30 10:16:21;;;;;;;8.43;6.80;;;;;;;25.94;53.14;94674.38;5029526;28;20081;-82
2021/06/30 10:18:53;;;;;;;7.63;6.32;;;;;;;26.45;53.16;94721.94;5027983;28;20289;-80
2021/06/30 10:21:19;;;;;;;6.95;5.97;;;;;;;26.56;52.61;94738.06;5028329;28;20018;-78
2021/06/30 10:23:45;;;;;;;7.43;5.63;;;;;;;26.64;52.08;94733.41;5030665;28;20029;-82
2021/06/30 10:26:12;;;;;;;7.35;5.70;;;;;;;26.93;52.30;94763.75;5013387;28;20037;-80
2021/06/30 10:28:37;;;;;;;5.90;5.22;;;;;;;27.10;51.58;94780.50;5027505;28;20029;-79
2021/06/30 10:31:03;;;;;;;7.65;5.95;;;;;;;26.39;51.67;94666.56;5009225;28;20045;-78
2021/06/30 10:33:37;;;;;;;6.72;5.65;;;;;;;27.30;51.34;94798.91;5058743;28;20567;-78
2021/06/30 10:36:03;;;;;;;7.00;5.63;;;;;;;27.35;51.00;94784.28;5025262;28;20033;-80
2021/06/30 10:38:48;;;;;;;6.95;5.95;;;;;;;27.40;50.60;94775.19;5024574;28;20021;-82
2021/06/30 11:17:04;;;;;;;7.82;6.63;;;;;;;27.27;48.46;94739.66;4782345;29;20063;-74
2021/06/30 11:19:30;;;;;;;7.47;6.22;;;;;;;27.17;48.86;94741.41;4740841;30;20205;-74
2021/06/30 11:21:56;;;;;;;7.20;6.07;;;;;;;27.07;48.69;94732.25;4778831;29;20043;-74
2021/06/30 11:24:33;;;;;;;8.05;6.30;;;;;;;27.03;48.76;94737.31;4766961;30;20135;-75
2021/06/30 11:26:59;;;;;;;7.65;6.25;;;;;;;26.98;48.79;94730.00;4777204;29;20027;-74
2021/06/30 11:29:47;;;;;;;8.40;6.50;;;;;;;26.92;48.84;94736.88;4779618;29;20039;-74
2021/06/30 11:32:37;;;;;;;6.55;5.85;;;;;;;26.85;48.66;94732.06;4781564;29;20552;-74
2021/06/30 11:35:06;;;;;;;9.25;6.43;;;;;;;26.40;49.22;94665.31;4781199;29;20051;-73
2021/06/30 11:37:31;;;;;;;6.70;5.95;;;;;;;26.73;49.36;94716.47;4781535;29;20495;-74
2021/06/30 11:40:00;;;;;;;7.32;6.10;;;;;;;26.68;49.07;94717.34;4780753;29;20043;-73
2021/06/30 11:42:36;;;;;;;6.38;5.70;;;;;;;26.62;49.24;94714.00;4780276;29;20087;-72
2021/06/30 11:45:01;;;;;;;7.35;6.10;;;;;;;26.57;49.63;94701.19;4781123;29;20510;-73
2021/06/30 11:47:27;;;;;;;6.70;5.85;;;;;;;26.55;49.30;94698.28;4781630;29;20052;-72
2021/06/30 11:50:05;;;;;;;6.78;5.78;;;;;;;26.54;49.74;94702.28;4781194;29;20085;-73
2021/06/30 11:52:31;;;;;;;6.68;5.95;;;;;;;26.47;50.10;94692.00;4781345;29;20047;-74
2021/06/30 11:54:57;;;;;;;7.03;6.25;;;;;;;26.45;50.31;94700.00;4840912;29;20052;-73
2021/06/30 11:57:23;;;;;;;7.75;6.55;;;;;;;26.39;49.56;94691.22;4839486;29;20037;-73
2021/06/30 11:59:59;;;;;;;7.38;5.90;;;;;;;26.27;48.96;94684.50;4857705;29;20028;-73